sensor_id;sensor_type;location;lat;lon;timestamp;temperature;humidity
50816;DHT22;39717;47.324;8.788;2022-07-23T00:02:10;20.50;99.90
50816;DHT22;39717;47.324;8.788;2022-07-23T00:04:35;20.50;99.90
50816;DHT22;39717;47.324;8.788;2022-07-23T00:07:01;20.50;99.90
50816;DHT22;39717;47.324;8.788;2022-07-23T00:09:27;20.50;99.90
50816;DHT22;39717;47.324;8.788;2022-07-23T00:11:54;20.40;99.90
50816;DHT22;39717;47.324;8.788;2022-07-23T00:14:19;20.50;99.90
50816;DHT22;39717;47.324;8.788;2022-07-23T00:16:45;20.50;99.90
50816;DHT22;39717;47.324;8.788;2022-07-23T00:19:11;20.50;99.90
50816;DHT22;39717;47.324;8.788;2022-07-23T00:21:37;20.50;99.90
50816;DHT22;39717;47.324;8.788;2022-07-23T00:24:03;20.40;99.90
50816;DHT22;39717;47.324;8.788;2022-07-23T00:26:28;20.50;99.90
50816;DHT22;39717;47.324;8.788;2022-07-23T00:28:54;20.40;99.90
50816;DHT22;39717;47.324;8.788;2022-07-23T00:31:20;20.50;99.90
50816;DHT22;39717;47.324;8.788;2022-07-23T00:33:46;20.40;99.90
50816;DHT22;39717;47.324;8.788;2022-07-23T00:36:11;20.30;99.90
50816;DHT22;39717;47.324;8.788;2022-07-23T00:38:37;20.20;99.90
50816;DHT22;39717;47.324;8.788;2022-07-23T00:41:03;20.20;99.90
50816;DHT22;39717;47.324;8.788;2022-07-23T00:43:29;20.30;99.90
50816;DHT22;39717;47.324;8.788;2022-07-23T00:45:54;20.30;99.90
50816;DHT22;39717;47.324;8.788;2022-07-23T00:48:20;20.30;99.90
50816;DHT22;39717;47.324;8.788;2022-07-23T00:50:46;20.30;99.90
50816;DHT22;39717;47.324;8.788;2022-07-23T00:53:12;20.20;99.90
50816;DHT22;39717;47.324;8.788;2022-07-23T00:55:39;20.10;99.90
50816;DHT22;39717;47.324;8.788;2022-07-23T00:58:06;20.10;99.90
50816;DHT22;39717;47.324;8.788;2022-07-23T01:00:32;20.00;99.90
50816;DHT22;39717;47.324;8.788;2022-07-23T01:02:57;20.00;99.90
50816;DHT22;39717;47.324;8.788;2022-07-23T01:05:23;20.10;99.90
50816;DHT22;39717;47.324;8.788;2022-07-23T01:07:51;20.00;99.90
50816;DHT22;39717;47.324;8.788;2022-07-23T01:10:17;19.90;99.90
50816;DHT22;39717;47.324;8.788;2022-07-23T01:12:59;19.90;99.90
50816;DHT22;39717;47.324;8.788;2022-07-23T01:15:25;19.90;99.90
50816;DHT22;39717;47.324;8.788;2022-07-23T01:17:51;19.90;99.90
50816;DHT22;39717;47.324;8.788;2022-07-23T01:20:18;20.00;99.90
50816;DHT22;39717;47.324;8.788;2022-07-23T01:22:44;20.00;99.90
50816;DHT22;39717;47.324;8.788;2022-07-23T01:25:10;19.90;99.90
50816;DHT22;39717;47.324;8.788;2022-07-23T01:27:36;19.90;99.90
50816;DHT22;39717;47.324;8.788;2022-07-23T01:30:03;19.90;99.90
50816;DHT22;39717;47.324;8.788;2022-07-23T01:32:29;19.90;99.90
50816;DHT22;39717;47.324;8.788;2022-07-23T01:34:55;19.90;99.90
50816;DHT22;39717;47.324;8.788;2022-07-23T01:37:21;19.90;99.90
50816;DHT22;39717;47.324;8.788;2022-07-23T01:39:47;19.90;99.90
50816;DHT22;39717;47.324;8.788;2022-07-23T01:42:13;19.70;99.90
50816;DHT22;39717;47.324;8.788;2022-07-23T01:44:39;19.70;99.90
50816;DHT22;39717;47.324;8.788;2022-07-23T01:47:05;19.70;99.90
50816;DHT22;39717;47.324;8.788;2022-07-23T01:49:31;19.70;99.90
50816;DHT22;39717;47.324;8.788;2022-07-23T01:51:56;19.60;99.90
50816;DHT22;39717;47.324;8.788;2022-07-23T01:54:29;19.50;99.90
50816;DHT22;39717;47.324;8.788;2022-07-23T01:56:56;19.50;99.90
50816;DHT22;39717;47.324;8.788;2022-07-23T01:59:22;19.50;99.90
50816;DHT22;39717;47.324;8.788;2022-07-23T02:01:48;19.50;99.90
50816;DHT22;39717;47.324;8.788;2022-07-23T02:04:17;19.40;99.90
50816;DHT22;39717;47.324;8.788;2022-07-23T02:06:43;19.40;99.90
50816;DHT22;39717;47.324;8.788;2022-07-23T02:09:09;19.40;99.90
50816;DHT22;39717;47.324;8.788;2022-07-23T02:11:35;19.50;99.90
50816;DHT22;39717;47.324;8.788;2022-07-23T02:14:00;19.50;99.90
50816;DHT22;39717;47.324;8.788;2022-07-23T02:16:26;19.50;99.90
50816;DHT22;39717;47.324;8.788;2022-07-23T02:18:52;19.50;99.90
50816;DHT22;39717;47.324;8.788;2022-07-23T02:21:18;19.50;99.90
50816;DHT22;39717;47.324;8.788;2022-07-23T02:23:43;19.50;99.90
50816;DHT22;39717;47.324;8.788;2022-07-23T02:26:09;19.50;99.90
50816;DHT22;39717;47.324;8.788;2022-07-23T02:28:35;19.50;99.90
50816;DHT22;39717;47.324;8.788;2022-07-23T02:31:01;19.40;99.90
50816;DHT22;39717;47.324;8.788;2022-07-23T02:33:26;19.40;99.90
50816;DHT22;39717;47.324;8.788;2022-07-23T02:35:52;19.30;99.90
50816;DHT22;39717;47.324;8.788;2022-07-23T02:38:18;19.30;99.90
50816;DHT22;39717;47.324;8.788;2022-07-23T02:40:44;19.30;99.90
50816;DHT22;39717;47.324;8.788;2022-07-23T02:43:09;19.30;99.90
50816;DHT22;39717;47.324;8.788;2022-07-23T02:45:35;19.30;99.90
50816;DHT22;39717;47.324;8.788;2022-07-23T02:48:01;19.30;99.90
50816;DHT22;39717;47.324;8.788;2022-07-23T02:50:27;19.30;99.90
50816;DHT22;39717;47.324;8.788;2022-07-23T02:52:52;19.40;99.90
50816;DHT22;39717;47.324;8.788;2022-07-23T02:55:18;19.40;99.90
50816;DHT22;39717;47.324;8.788;2022-07-23T02:57:44;19.40;99.90
50816;DHT22;39717;47.324;8.788;2022-07-23T03:00:10;19.40;99.90
50816;DHT22;39717;47.324;8.788;2022-07-23T03:02:36;19.40;99.90
50816;DHT22;39717;47.324;8.788;2022-07-23T03:05:02;19.40;99.90
50816;DHT22;39717;47.324;8.788;2022-07-23T03:07:27;19.40;99.90
50816;DHT22;39717;47.324;8.788;2022-07-23T03:09:53;19.50;99.90
50816;DHT22;39717;47.324;8.788;2022-07-23T03:12:19;19.40;99.90
50816;DHT22;39717;47.324;8.788;2022-07-23T03:14:45;19.20;99.90
50816;DHT22;39717;47.324;8.788;2022-07-23T03:17:10;19.10;99.90
50816;DHT22;39717;47.324;8.788;2022-07-23T03:19:37;19.00;99.90
50816;DHT22;39717;47.324;8.788;2022-07-23T03:22:04;19.10;99.90
50816;DHT22;39717;47.324;8.788;2022-07-23T03:24:30;19.20;99.90
50816;DHT22;39717;47.324;8.788;2022-07-23T03:27:15;19.30;99.90
50816;DHT22;39717;47.324;8.788;2022-07-23T03:29:41;19.30;99.90
50816;DHT22;39717;47.324;8.788;2022-07-23T03:32:07;19.30;99.90
50816;DHT22;39717;47.324;8.788;2022-07-23T03:34:32;19.20;99.90
50816;DHT22;39717;47.324;8.788;2022-07-23T03:36:59;19.00;99.90
50816;DHT22;39717;47.324;8.788;2022-07-23T03:39:24;18.90;99.90
50816;DHT22;39717;47.324;8.788;2022-07-23T03:41:50;18.80;99.90
50816;DHT22;39717;47.324;8.788;2022-07-23T03:44:16;18.70;99.90
50816;DHT22;39717;47.324;8.788;2022-07-23T03:46:42;18.70;99.90
50816;DHT22;39717;47.324;8.788;2022-07-23T03:49:08;18.80;99.90
50816;DHT22;39717;47.324;8.788;2022-07-23T03:51:33;18.80;99.90
50816;DHT22;39717;47.324;8.788;2022-07-23T03:53:59;18.90;99.90
50816;DHT22;39717;47.324;8.788;2022-07-23T03:56:25;18.90;99.90
50816;DHT22;39717;47.324;8.788;2022-07-23T03:58:51;18.90;99.90
50816;DHT22;39717;47.324;8.788;2022-07-23T04:01:17;18.90;99.90
50816;DHT22;39717;47.324;8.788;2022-07-23T04:03:43;18.90;99.90
50816;DHT22;39717;47.324;8.788;2022-07-23T04:06:09;19.00;99.90
50816;DHT22;39717;47.324;8.788;2022-07-23T04:08:34;19.00;99.90
50816;DHT22;39717;47.324;8.788;2022-07-23T04:11:00;19.10;99.90
50816;DHT22;39717;47.324;8.788;2022-07-23T04:13:26;19.20;99.90
50816;DHT22;39717;47.324;8.788;2022-07-23T04:15:52;19.20;99.90
50816;DHT22;39717;47.324;8.788;2022-07-23T04:18:18;19.20;99.90
50816;DHT22;39717;47.324;8.788;2022-07-23T04:20:44;19.20;99.90
50816;DHT22;39717;47.324;8.788;2022-07-23T04:23:10;19.30;99.90
50816;DHT22;39717;47.324;8.788;2022-07-23T04:25:36;19.30;99.90
50816;DHT22;39717;47.324;8.788;2022-07-23T04:28:02;19.40;99.90
50816;DHT22;39717;47.324;8.788;2022-07-23T04:30:28;19.30;99.90
50816;DHT22;39717;47.324;8.788;2022-07-23T04:32:53;19.30;99.90
50816;DHT22;39717;47.324;8.788;2022-07-23T04:35:20;19.20;99.90
50816;DHT22;39717;47.324;8.788;2022-07-23T04:37:45;19.20;99.90
50816;DHT22;39717;47.324;8.788;2022-07-23T04:40:12;19.00;99.90
50816;DHT22;39717;47.324;8.788;2022-07-23T04:42:39;19.00;99.90
50816;DHT22;39717;47.324;8.788;2022-07-23T04:45:05;19.00;99.90
50816;DHT22;39717;47.324;8.788;2022-07-23T04:47:32;19.00;99.90
50816;DHT22;39717;47.324;8.788;2022-07-23T04:49:57;19.00;99.90
50816;DHT22;39717;47.324;8.788;2022-07-23T04:52:24;19.00;99.90
50816;DHT22;39717;47.324;8.788;2022-07-23T04:54:50;19.10;99.90
50816;DHT22;39717;47.324;8.788;2022-07-23T04:57:16;19.10;99.90
50816;DHT22;39717;47.324;8.788;2022-07-23T04:59:42;19.20;99.90
50816;DHT22;39717;47.324;8.788;2022-07-23T05:02:07;19.20;99.90
50816;DHT22;39717;47.324;8.788;2022-07-23T05:04:33;19.10;99.90
50816;DHT22;39717;47.324;8.788;2022-07-23T05:06:59;19.20;99.90
50816;DHT22;39717;47.324;8.788;2022-07-23T05:09:25;19.20;99.90
50816;DHT22;39717;47.324;8.788;2022-07-23T05:11:51;19.20;99.90
50816;DHT22;39717;47.324;8.788;2022-07-23T05:14:17;19.20;99.90
50816;DHT22;39717;47.324;8.788;2022-07-23T05:16:43;19.20;99.90
50816;DHT22;39717;47.324;8.788;2022-07-23T05:19:08;19.20;99.90
50816;DHT22;39717;47.324;8.788;2022-07-23T05:21:34;19.20;99.90
50816;DHT22;39717;47.324;8.788;2022-07-23T05:24:00;19.20;99.90
50816;DHT22;39717;47.324;8.788;2022-07-23T05:26:26;19.10;99.90
50816;DHT22;39717;47.324;8.788;2022-07-23T05:28:52;19.20;99.90
50816;DHT22;39717;47.324;8.788;2022-07-23T05:31:18;19.20;99.90
50816;DHT22;39717;47.324;8.788;2022-07-23T05:33:44;19.20;99.90
50816;DHT22;39717;47.324;8.788;2022-07-23T05:36:10;19.20;99.90
50816;DHT22;39717;47.324;8.788;2022-07-23T05:38:36;19.20;99.90
50816;DHT22;39717;47.324;8.788;2022-07-23T05:41:02;19.20;99.90
50816;DHT22;39717;47.324;8.788;2022-07-23T05:43:28;19.30;99.90
50816;DHT22;39717;47.324;8.788;2022-07-23T05:45:54;19.20;99.90
50816;DHT22;39717;47.324;8.788;2022-07-23T05:48:20;19.20;99.90
50816;DHT22;39717;47.324;8.788;2022-07-23T05:50:47;19.20;99.90
50816;DHT22;39717;47.324;8.788;2022-07-23T05:53:13;19.20;99.90
50816;DHT22;39717;47.324;8.788;2022-07-23T05:55:39;19.20;99.90
50816;DHT22;39717;47.324;8.788;2022-07-23T05:58:04;19.30;99.90
50816;DHT22;39717;47.324;8.788;2022-07-23T06:00:31;19.30;99.90
50816;DHT22;39717;47.324;8.788;2022-07-23T06:02:57;19.30;99.90
50816;DHT22;39717;47.324;8.788;2022-07-23T06:05:23;19.40;99.90
50816;DHT22;39717;47.324;8.788;2022-07-23T06:07:49;19.40;99.90
50816;DHT22;39717;47.324;8.788;2022-07-23T06:10:15;19.30;99.90
50816;DHT22;39717;47.324;8.788;2022-07-23T06:12:42;19.30;99.90
50816;DHT22;39717;47.324;8.788;2022-07-23T06:15:09;19.30;99.90
50816;DHT22;39717;47.324;8.788;2022-07-23T06:17:35;19.20;99.90
50816;DHT22;39717;47.324;8.788;2022-07-23T06:20:01;19.20;99.90
50816;DHT22;39717;47.324;8.788;2022-07-23T06:22:26;19.20;99.90
50816;DHT22;39717;47.324;8.788;2022-07-23T06:24:52;19.00;99.90
50816;DHT22;39717;47.324;8.788;2022-07-23T06:27:18;19.00;99.90
50816;DHT22;39717;47.324;8.788;2022-07-23T06:29:44;18.90;99.90
50816;DHT22;39717;47.324;8.788;2022-07-23T06:32:10;18.90;99.90
50816;DHT22;39717;47.324;8.788;2022-07-23T06:34:36;18.90;99.90
50816;DHT22;39717;47.324;8.788;2022-07-23T06:37:01;18.90;99.90
50816;DHT22;39717;47.324;8.788;2022-07-23T06:39:27;18.90;99.90
50816;DHT22;39717;47.324;8.788;2022-07-23T06:41:53;18.80;99.90
50816;DHT22;39717;47.324;8.788;2022-07-23T06:44:19;18.80;99.90
50816;DHT22;39717;47.324;8.788;2022-07-23T06:46:45;18.90;99.90
50816;DHT22;39717;47.324;8.788;2022-07-23T06:49:10;18.80;99.90
50816;DHT22;39717;47.324;8.788;2022-07-23T06:51:36;18.90;99.90
50816;DHT22;39717;47.324;8.788;2022-07-23T06:54:03;18.90;99.90
50816;DHT22;39717;47.324;8.788;2022-07-23T06:56:29;18.90;99.90
50816;DHT22;39717;47.324;8.788;2022-07-23T06:58:54;18.90;99.90
50816;DHT22;39717;47.324;8.788;2022-07-23T07:01:20;18.90;99.90
50816;DHT22;39717;47.324;8.788;2022-07-23T07:03:47;18.80;99.90
50816;DHT22;39717;47.324;8.788;2022-07-23T07:06:14;18.80;99.90
50816;DHT22;39717;47.324;8.788;2022-07-23T07:08:40;18.80;99.90
50816;DHT22;39717;47.324;8.788;2022-07-23T07:11:06;18.80;99.90
50816;DHT22;39717;47.324;8.788;2022-07-23T07:13:32;18.80;99.90
50816;DHT22;39717;47.324;8.788;2022-07-23T07:15:58;18.80;99.90
50816;DHT22;39717;47.324;8.788;2022-07-23T07:18:24;18.80;99.90
50816;DHT22;39717;47.324;8.788;2022-07-23T07:20:49;18.80;99.90
50816;DHT22;39717;47.324;8.788;2022-07-23T07:23:15;18.80;99.90
50816;DHT22;39717;47.324;8.788;2022-07-23T07:25:41;18.80;99.90
50816;DHT22;39717;47.324;8.788;2022-07-23T07:28:06;18.80;99.90
50816;DHT22;39717;47.324;8.788;2022-07-23T07:30:32;18.80;99.90
50816;DHT22;39717;47.324;8.788;2022-07-23T07:32:58;18.80;99.90
50816;DHT22;39717;47.324;8.788;2022-07-23T07:35:24;18.70;99.90
50816;DHT22;39717;47.324;8.788;2022-07-23T07:37:50;18.70;99.90
50816;DHT22;39717;47.324;8.788;2022-07-23T07:40:16;18.60;99.90
50816;DHT22;39717;47.324;8.788;2022-07-23T07:42:51;18.60;99.90
50816;DHT22;39717;47.324;8.788;2022-07-23T07:45:17;18.60;99.90
50816;DHT22;39717;47.324;8.788;2022-07-23T07:47:43;18.60;99.90
50816;DHT22;39717;47.324;8.788;2022-07-23T07:50:09;18.60;99.90
50816;DHT22;39717;47.324;8.788;2022-07-23T07:52:36;18.60;99.90
50816;DHT22;39717;47.324;8.788;2022-07-23T07:55:06;18.60;99.90
50816;DHT22;39717;47.324;8.788;2022-07-23T07:57:33;18.60;99.90
50816;DHT22;39717;47.324;8.788;2022-07-23T07:59:59;18.70;99.90
50816;DHT22;39717;47.324;8.788;2022-07-23T08:02:25;18.70;99.90
50816;DHT22;39717;47.324;8.788;2022-07-23T08:04:51;18.60;99.90
50816;DHT22;39717;47.324;8.788;2022-07-23T08:07:18;18.70;99.90
50816;DHT22;39717;47.324;8.788;2022-07-23T08:09:44;18.60;99.90
50816;DHT22;39717;47.324;8.788;2022-07-23T08:12:10;18.60;99.90
50816;DHT22;39717;47.324;8.788;2022-07-23T08:14:35;18.60;99.90
50816;DHT22;39717;47.324;8.788;2022-07-23T08:17:01;18.60;99.90
50816;DHT22;39717;47.324;8.788;2022-07-23T08:19:27;18.50;99.90
50816;DHT22;39717;47.324;8.788;2022-07-23T08:21:53;18.50;99.90
50816;DHT22;39717;47.324;8.788;2022-07-23T08:24:18;18.50;99.90
50816;DHT22;39717;47.324;8.788;2022-07-23T08:26:44;18.60;99.90
50816;DHT22;39717;47.324;8.788;2022-07-23T08:29:10;18.60;99.90
50816;DHT22;39717;47.324;8.788;2022-07-23T08:31:36;18.60;99.90
50816;DHT22;39717;47.324;8.788;2022-07-23T08:34:02;18.60;99.90
50816;DHT22;39717;47.324;8.788;2022-07-23T08:36:28;18.60;99.90
50816;DHT22;39717;47.324;8.788;2022-07-23T08:38:58;18.50;99.90
50816;DHT22;39717;47.324;8.788;2022-07-23T08:41:25;18.50;99.90
50816;DHT22;39717;47.324;8.788;2022-07-23T08:43:51;18.60;99.90
50816;DHT22;39717;47.324;8.788;2022-07-23T08:46:19;18.60;99.90
50816;DHT22;39717;47.324;8.788;2022-07-23T08:48:48;18.60;99.90
50816;DHT22;39717;47.324;8.788;2022-07-23T08:51:15;18.60;99.90
50816;DHT22;39717;47.324;8.788;2022-07-23T08:53:41;18.60;99.90
50816;DHT22;39717;47.324;8.788;2022-07-23T08:56:08;18.50;99.90
50816;DHT22;39717;47.324;8.788;2022-07-23T08:58:34;18.50;99.90
50816;DHT22;39717;47.324;8.788;2022-07-23T09:01:01;18.60;99.90
50816;DHT22;39717;47.324;8.788;2022-07-23T09:03:35;18.50;99.90
50816;DHT22;39717;47.324;8.788;2022-07-23T09:06:02;18.50;99.90
50816;DHT22;39717;47.324;8.788;2022-07-23T09:08:35;18.50;99.90
50816;DHT22;39717;47.324;8.788;2022-07-23T09:11:03;18.50;99.90
50816;DHT22;39717;47.324;8.788;2022-07-23T09:13:33;18.50;99.90
50816;DHT22;39717;47.324;8.788;2022-07-23T09:16:06;18.50;99.90
50816;DHT22;39717;47.324;8.788;2022-07-23T09:18:40;18.50;99.90
50816;DHT22;39717;47.324;8.788;2022-07-23T09:21:13;18.50;99.90
50816;DHT22;39717;47.324;8.788;2022-07-23T09:24:10;18.60;99.90
50816;DHT22;39717;47.324;8.788;2022-07-23T09:26:42;18.70;99.90
50816;DHT22;39717;47.324;8.788;2022-07-23T09:29:22;18.70;99.90
50816;DHT22;39717;47.324;8.788;2022-07-23T09:31:52;18.80;99.90
50816;DHT22;39717;47.324;8.788;2022-07-23T09:34:25;18.80;99.90
50816;DHT22;39717;47.324;8.788;2022-07-23T09:36:58;18.90;99.90
50816;DHT22;39717;47.324;8.788;2022-07-23T09:39:32;19.00;99.90
50816;DHT22;39717;47.324;8.788;2022-07-23T09:42:23;19.00;99.90
50816;DHT22;39717;47.324;8.788;2022-07-23T09:44:57;19.10;99.90
50816;DHT22;39717;47.324;8.788;2022-07-23T09:47:25;19.20;99.90
50816;DHT22;39717;47.324;8.788;2022-07-23T09:50:19;19.30;99.90
50816;DHT22;39717;47.324;8.788;2022-07-23T09:52:49;19.40;99.90
50816;DHT22;39717;47.324;8.788;2022-07-23T09:55:17;19.40;99.90
50816;DHT22;39717;47.324;8.788;2022-07-23T19:21:35;19.60;99.90
50816;DHT22;39717;47.324;8.788;2022-07-23T19:26:27;23.70;99.90
50816;DHT22;39717;47.324;8.788;2022-07-23T19:28:53;23.50;99.90
50816;DHT22;39717;47.324;8.788;2022-07-23T19:31:19;23.50;99.90
50816;DHT22;39717;47.324;8.788;2022-07-23T19:33:46;23.50;99.90
50816;DHT22;39717;47.324;8.788;2022-07-23T19:36:12;23.50;99.90
50816;DHT22;39717;47.324;8.788;2022-07-23T19:38:38;23.40;99.90
50816;DHT22;39717;47.324;8.788;2022-07-23T19:41:04;23.40;99.90
50816;DHT22;39717;47.324;8.788;2022-07-23T19:43:30;23.50;99.90
50816;DHT22;39717;47.324;8.788;2022-07-23T19:45:56;23.40;99.90
50816;DHT22;39717;47.324;8.788;2022-07-23T19:48:22;23.40;99.90
50816;DHT22;39717;47.324;8.788;2022-07-23T19:50:48;23.40;99.90
50816;DHT22;39717;47.324;8.788;2022-07-23T19:53:14;23.40;99.90
50816;DHT22;39717;47.324;8.788;2022-07-23T19:55:39;23.40;99.90
50816;DHT22;39717;47.324;8.788;2022-07-23T19:58:05;23.40;99.90
50816;DHT22;39717;47.324;8.788;2022-07-23T20:00:32;23.40;99.90
50816;DHT22;39717;47.324;8.788;2022-07-23T20:02:58;23.40;99.90
50816;DHT22;39717;47.324;8.788;2022-07-23T20:05:23;23.30;99.90
50816;DHT22;39717;47.324;8.788;2022-07-23T20:07:49;23.20;99.90
50816;DHT22;39717;47.324;8.788;2022-07-23T20:10:15;23.20;99.90
50816;DHT22;39717;47.324;8.788;2022-07-23T20:12:41;23.20;99.90
50816;DHT22;39717;47.324;8.788;2022-07-23T20:15:10;23.20;99.90
50816;DHT22;39717;47.324;8.788;2022-07-23T20:17:37;23.10;99.90
50816;DHT22;39717;47.324;8.788;2022-07-23T20:20:04;23.10;99.90
50816;DHT22;39717;47.324;8.788;2022-07-23T20:22:31;23.10;99.90
50816;DHT22;39717;47.324;8.788;2022-07-23T20:24:57;23.10;99.90
50816;DHT22;39717;47.324;8.788;2022-07-23T20:27:22;23.10;99.90
50816;DHT22;39717;47.324;8.788;2022-07-23T20:29:48;23.20;99.90
50816;DHT22;39717;47.324;8.788;2022-07-23T20:32:14;23.20;99.90
50816;DHT22;39717;47.324;8.788;2022-07-23T20:34:40;23.20;99.90
50816;DHT22;39717;47.324;8.788;2022-07-23T20:37:05;23.20;99.90
50816;DHT22;39717;47.324;8.788;2022-07-23T20:39:31;23.10;99.90
50816;DHT22;39717;47.324;8.788;2022-07-23T20:41:58;23.10;99.90
50816;DHT22;39717;47.324;8.788;2022-07-23T20:44:24;23.10;99.90
50816;DHT22;39717;47.324;8.788;2022-07-23T20:46:50;23.10;99.90
50816;DHT22;39717;47.324;8.788;2022-07-23T20:49:16;23.00;99.90
50816;DHT22;39717;47.324;8.788;2022-07-23T20:51:44;23.00;99.90
50816;DHT22;39717;47.324;8.788;2022-07-23T20:54:10;23.00;99.90
50816;DHT22;39717;47.324;8.788;2022-07-23T20:56:36;22.90;99.90
50816;DHT22;39717;47.324;8.788;2022-07-23T20:59:02;22.90;99.90
50816;DHT22;39717;47.324;8.788;2022-07-23T21:01:28;22.90;99.90
50816;DHT22;39717;47.324;8.788;2022-07-23T21:03:54;22.90;99.90
50816;DHT22;39717;47.324;8.788;2022-07-23T21:06:20;22.80;99.90
50816;DHT22;39717;47.324;8.788;2022-07-23T21:08:46;22.70;99.90
50816;DHT22;39717;47.324;8.788;2022-07-23T21:11:12;22.70;99.90
50816;DHT22;39717;47.324;8.788;2022-07-23T21:13:38;22.70;99.90
50816;DHT22;39717;47.324;8.788;2022-07-23T21:16:04;22.60;99.90
50816;DHT22;39717;47.324;8.788;2022-07-23T21:18:30;22.60;99.90
50816;DHT22;39717;47.324;8.788;2022-07-23T21:20:56;22.50;99.90
50816;DHT22;39717;47.324;8.788;2022-07-23T21:23:35;22.50;99.90
50816;DHT22;39717;47.324;8.788;2022-07-23T21:26:01;22.50;99.90
50816;DHT22;39717;47.324;8.788;2022-07-23T21:28:27;22.50;99.90
50816;DHT22;39717;47.324;8.788;2022-07-23T21:30:53;22.40;99.90
50816;DHT22;39717;47.324;8.788;2022-07-23T21:33:20;22.40;99.90
50816;DHT22;39717;47.324;8.788;2022-07-23T21:38:12;22.40;99.90
50816;DHT22;39717;47.324;8.788;2022-07-23T21:40:38;22.30;99.90
50816;DHT22;39717;47.324;8.788;2022-07-23T21:43:03;22.30;99.90
50816;DHT22;39717;47.324;8.788;2022-07-23T21:45:30;22.20;99.90
50816;DHT22;39717;47.324;8.788;2022-07-23T21:47:55;22.20;99.90
50816;DHT22;39717;47.324;8.788;2022-07-23T21:50:22;22.20;99.90
50816;DHT22;39717;47.324;8.788;2022-07-23T21:52:48;22.20;99.90
50816;DHT22;39717;47.324;8.788;2022-07-23T21:55:15;22.10;99.90
50816;DHT22;39717;47.324;8.788;2022-07-23T21:57:41;22.10;99.90
50816;DHT22;39717;47.324;8.788;2022-07-23T22:00:18;22.10;99.90
50816;DHT22;39717;47.324;8.788;2022-07-23T22:02:48;22.10;99.90
50816;DHT22;39717;47.324;8.788;2022-07-23T22:05:14;22.00;99.90
50816;DHT22;39717;47.324;8.788;2022-07-23T22:07:40;22.00;99.90
50816;DHT22;39717;47.324;8.788;2022-07-23T22:10:06;22.00;99.90
50816;DHT22;39717;47.324;8.788;2022-07-23T22:12:32;22.00;99.90
50816;DHT22;39717;47.324;8.788;2022-07-23T22:14:58;21.90;99.90
50816;DHT22;39717;47.324;8.788;2022-07-23T22:17:24;21.90;99.90
50816;DHT22;39717;47.324;8.788;2022-07-23T22:19:50;21.90;99.90
50816;DHT22;39717;47.324;8.788;2022-07-23T22:22:15;21.80;99.90
50816;DHT22;39717;47.324;8.788;2022-07-23T22:24:41;21.80;99.90
50816;DHT22;39717;47.324;8.788;2022-07-23T22:27:07;21.80;99.90
50816;DHT22;39717;47.324;8.788;2022-07-23T22:29:33;21.80;99.90
50816;DHT22;39717;47.324;8.788;2022-07-23T22:31:58;21.70;99.90
50816;DHT22;39717;47.324;8.788;2022-07-23T22:34:24;21.70;99.90
50816;DHT22;39717;47.324;8.788;2022-07-23T22:36:50;21.70;99.90
50816;DHT22;39717;47.324;8.788;2022-07-23T22:39:15;21.70;99.90
50816;DHT22;39717;47.324;8.788;2022-07-23T22:41:41;21.70;99.90
50816;DHT22;39717;47.324;8.788;2022-07-23T22:44:07;21.60;99.90
50816;DHT22;39717;47.324;8.788;2022-07-23T22:46:33;21.50;99.90
50816;DHT22;39717;47.324;8.788;2022-07-23T22:48:59;21.50;99.90
50816;DHT22;39717;47.324;8.788;2022-07-23T22:51:24;21.50;99.90
50816;DHT22;39717;47.324;8.788;2022-07-23T22:53:50;21.40;99.90
50816;DHT22;39717;47.324;8.788;2022-07-23T22:56:16;21.40;99.90
50816;DHT22;39717;47.324;8.788;2022-07-23T22:58:41;21.30;99.90
50816;DHT22;39717;47.324;8.788;2022-07-23T23:01:07;21.30;99.90
50816;DHT22;39717;47.324;8.788;2022-07-23T23:03:33;21.30;99.90
50816;DHT22;39717;47.324;8.788;2022-07-23T23:05:59;21.20;99.90
50816;DHT22;39717;47.324;8.788;2022-07-23T23:08:24;21.20;99.90
50816;DHT22;39717;47.324;8.788;2022-07-23T23:10:50;21.20;99.90
50816;DHT22;39717;47.324;8.788;2022-07-23T23:13:16;21.20;99.90
50816;DHT22;39717;47.324;8.788;2022-07-23T23:15:42;21.20;99.90
50816;DHT22;39717;47.324;8.788;2022-07-23T23:18:07;21.20;99.90
50816;DHT22;39717;47.324;8.788;2022-07-23T23:20:33;21.10;99.90
50816;DHT22;39717;47.324;8.788;2022-07-23T23:22:59;21.10;99.90
50816;DHT22;39717;47.324;8.788;2022-07-23T23:25:25;21.10;99.90
50816;DHT22;39717;47.324;8.788;2022-07-23T23:27:50;21.10;99.90
50816;DHT22;39717;47.324;8.788;2022-07-23T23:30:16;21.10;99.90
50816;DHT22;39717;47.324;8.788;2022-07-23T23:32:42;21.10;99.90
50816;DHT22;39717;47.324;8.788;2022-07-23T23:35:08;21.10;99.90
50816;DHT22;39717;47.324;8.788;2022-07-23T23:37:34;21.10;99.90
50816;DHT22;39717;47.324;8.788;2022-07-23T23:39:59;21.10;99.90
50816;DHT22;39717;47.324;8.788;2022-07-23T23:42:25;21.10;99.90
50816;DHT22;39717;47.324;8.788;2022-07-23T23:44:51;21.00;99.90
50816;DHT22;39717;47.324;8.788;2022-07-23T23:47:16;20.90;99.90
50816;DHT22;39717;47.324;8.788;2022-07-23T23:49:42;20.80;99.90
50816;DHT22;39717;47.324;8.788;2022-07-23T23:52:08;20.80;99.90
50816;DHT22;39717;47.324;8.788;2022-07-23T23:54:34;20.80;99.90
50816;DHT22;39717;47.324;8.788;2022-07-23T23:56:59;20.80;99.90
50816;DHT22;39717;47.324;8.788;2022-07-23T23:59:25;20.80;99.90
